Nearby METAR Reports

 

KBED - Bedford, Massachusetts, USA
Distance from station: ENE 12mi, 20km
Updated: Fri, 07-Aug-2020 9:51am EDT
Mostly cloudy
Mostly cloudy
 Wind from NW
Wind: NW 3 mph , 6 km/h
Temperature: 70°F , 21°C
Dew Point: 61°F , 16°C
Humidity: 73%
Barometer: 30.20 inHg , 1022.7 hPa
Clouds: Mostly cloudy
Visibility: 10 miles , 16 km
Cloud details: Mostly cloudy 7500 ft
2020/08/07 13:51 KBED 071351Z 32003KT 10SM BKN075 21/16 A3020 RMK AO2 SLP237 T02060156
KFIT - Fitchburg, Massachusetts, USA
Distance from station: NW 15mi, 24km
Updated: Fri, 07-Aug-2020 9:52am EDT
Mostly cloudy
Mostly cloudy
 Wind from calm
Wind: Calm
Temperature: 70°F , 21°C
Dew Point: 55°F , 13°C
Humidity: 60%
Barometer: 30.22 inHg , 1023.4 hPa
Clouds: Mostly cloudy
Visibility: 10 miles , 16 km
Cloud details: Mostly cloudy 8000 ft
2020/08/07 13:52 KFIT 071352Z AUTO 00000KT 10SM BKN080 21/13 A3022 RMK AO2 RAE05 SLP231 P0000 T02110133
 
KORH - Worcester, Massachusetts, USA
Distance from station: WSW 20mi, 32km
Updated: Fri, 07-Aug-2020 9:54am EDT
Light rain, Overcast
Light rain, Overcast
 Wind from varies
Wind: varies 5 mph , 7 km/h
Temperature: 66°F , 19°C
Dew Point: 54°F , 12°C
Humidity: 64%
Barometer: 30.22 inHg , 1023.4 hPa
Summary: Light rain
Clouds: Overcast
Visibility: 10 miles , 16 km
Cloud details: Mostly cloudy 7000 ft
Overcast 9000 ft
2020/08/07 13:54 KORH 071354Z VRB04KT 10SM -RA BKN070 OVC090 19/12 A3022 RMK AO2 RAB54 SLP232 P0000 T01940122
KOWD - Norwood, Massachusetts, USA
Distance from station: SE 24mi, 39km
Updated: Fri, 07-Aug-2020 9:53am EDT
Partly cloudy
Partly cloudy
 Wind from N
Wind: N 5 mph , 7 km/h
Temperature: 73°F , 23°C
Dew Point: 57°F , 14°C
Humidity: 57%
Barometer: 30.20 inHg , 1022.7 hPa
Clouds: Partly cloudy
Visibility: 10 miles , 16 km
Cloud details: Partly cloudy 8000 ft
2020/08/07 13:53 KOWD 071353Z 01004KT 10SM SCT080 23/14 A3020 RMK AO2 SLP225 T02330139
 
KMQE - East Milton, Massachusetts, USA
Distance from station: ESE 25mi, 40km
Updated: Fri, 07-Aug-2020 9:51am EDT

 Wind from NNE
Wind: NNE 9 mph , 15 km/h
Temperature: 70°F , 21°C
Dew Point: 55°F , 13°C
Humidity: 60%
Barometer: 30.20 inHg , 1022.7 hPa
2020/08/07 13:51 KMQE 071351Z AUTO 03008KT 21/13 A3020 RMK AO1 SLP234 T02110133
KASH - Nashua/Boire Fld, New Hampshire, USA
Distance from station: N 26mi, 42km
Updated: Fri, 07-Aug-2020 9:56am EDT
Mostly cloudy
Mostly cloudy
 Wind from calm
Wind: Calm
Temperature: 70°F , 21°C
Dew Point: 59°F , 15°C
Humidity: 69%
Barometer: 30.22 inHg , 1023.4 hPa
Clouds: Mostly cloudy
Visibility: 10 miles , 16 km
Cloud details: Mostly cloudy 9000 ft
Mostly cloudy 12000 ft
2020/08/07 13:56 KASH 071356Z 00000KT 10SM BKN090 BKN120 21/15 A3022 RMK AO2 SLP236 T02060150
 
KBOS - Boston, Massachusetts, USA
Distance from station: E 26mi, 42km
Updated: Fri, 07-Aug-2020 9:54am EDT
Overcast
Overcast
 Wind from ENE
Wind: ENE 7 mph , 11 km/h
Temperature: 72°F , 22°C
Dew Point: 55°F , 13°C
Humidity: 57%
Barometer: 30.21 inHg , 1023 hPa
Clouds: Overcast
Visibility: 10 miles , 16 km
Cloud details: Few Clouds 5500 ft
Mostly cloudy 12000 ft
Overcast 16000 ft
2020/08/07 13:54 KBOS 071354Z 06006KT 10SM FEW055 BKN120 OVC160 22/13 A3021 RMK AO2 SLP228 T02170133
KLWM - Lawrence, Massachusetts, USA
Distance from station: NE 29mi, 47km
Updated: Fri, 07-Aug-2020 9:54am EDT
Few Clouds
Few Clouds
 Wind from NNE
Wind: NNE 5 mph , 7 km/h
Temperature: 70°F , 21°C
Dew Point: 57°F , 14°C
Humidity: 64%
Barometer: 30.23 inHg , 1023.7 hPa
Clouds: Few Clouds
Visibility: 10 miles , 16 km
Cloud details: Few Clouds 7500 ft
2020/08/07 13:54 KLWM 071354Z 02004KT 10SM FEW075 21/14 A3023 RMK AO2 SLP235 T02060144
 
KBVY - Beverly, Massachusetts, USA
Distance from station: ENE 33mi, 54km
Updated: Fri, 07-Aug-2020 9:53am EDT
Clear
Clear
 Wind from ENE
Wind: ENE 7 mph , 11 km/h
Temperature: 70°F , 21°C
Dew Point: 57°F , 14°C
Humidity: 64%
Barometer: 30.20 inHg , 1022.7 hPa
Clouds: Clear
Visibility: 10 miles , 16 km
2020/08/07 13:53 KBVY 071353Z 06006KT 10SM CLR 21/14 A3020 RMK AO2 SLP221 T02110144 PNO
KSFZ - Pawtucket, Rhode Island, USA
Distance from station: S 34mi, 54km
Updated: Fri, 07-Aug-2020 9:56am EDT
Mostly cloudy
Mostly cloudy
 Wind from NNE
Wind: NNE 6 mph , 9 km/h
Temperature: 72°F , 22°C
Dew Point: 61°F , 16°C
Humidity: 69%
Barometer: 30.21 inHg , 1023 hPa
Clouds: Mostly cloudy
Visibility: 10 miles , 16 km
Cloud details: Mostly cloudy 7000 ft
2020/08/07 13:56 KSFZ 071356Z AUTO 02005KT 10SM BKN070 22/16 A3021 RMK AO2 SLP173 T02220161
 
KAFN - Jaffrey, New Hampshire, USA
Distance from station: NW 36mi, 59km
Updated: Fri, 07-Aug-2020 9:52am EDT
Mostly cloudy
Mostly cloudy
 Wind from varies
Wind: varies 3 mph , 6 km/h
Temperature: 68°F , 20°C
Dew Point: 55°F , 13°C
Humidity: 64%
Barometer: 30.24 inHg , 1024 hPa
Clouds: Mostly cloudy
Visibility: 10 miles , 16 km
Cloud details: Mostly cloudy 7500 ft
Mostly cloudy 10000 ft
2020/08/07 13:52 KAFN 071352Z AUTO VRB03KT 10SM BKN075 BKN100 20/13 A3024 RMK AO2 SLP242 T02000128
KMHT - Manchester, New Hampshire, USA
Distance from station: N 37mi, 59km
Updated: Fri, 07-Aug-2020 9:53am EDT
Mostly cloudy
Mostly cloudy
 Wind from NNE
Wind: NNE 3 mph , 6 km/h
Temperature: 72°F , 22°C
Dew Point: 57°F , 14°C
Humidity: 61%
Barometer: 30.20 inHg , 1022.7 hPa
Clouds: Mostly cloudy
Visibility: 10 miles , 16 km
Cloud details: Partly cloudy 8000 ft
Mostly cloudy 15000 ft
Mostly cloudy 25000 ft
2020/08/07 13:53 KMHT 071353Z 02003KT 10SM SCT080 BKN150 BKN250 22/14 A3020 RMK AO2 SLP235 T02220139
 
KORE - Orange, Massachusetts, USA
Distance from station: WNW 40mi, 65km
Updated: Fri, 07-Aug-2020 9:52am EDT
Overcast
Overcast
 Wind from NW
Wind: NW 6 mph , 9 km/h
Temperature: 66°F , 19°C
Dew Point: 57°F , 14°C
Humidity: 73%
Barometer: 30.23 inHg , 1023.7 hPa
Clouds: Overcast
Visibility: 10 miles , 16 km
Cloud details: Overcast 7000 ft
2020/08/07 13:52 KORE 071352Z AUTO 31005KT 10SM OVC070 19/14 A3023 RMK AO2 SLP235 T01890144
KTAN - Taunton, Massachusetts, USA
Distance from station: SE 45mi, 72km
Updated: Fri, 07-Aug-2020 9:52am EDT
Few Clouds
Few Clouds
 Wind from N
Wind: N 3 mph , 6 km/h
Temperature: 73°F , 23°C
Dew Point: 63°F , 17°C
Humidity: 69%
Barometer: 30.18 inHg , 1022 hPa
Clouds: Few Clouds
Visibility: 10 miles , 16 km
Cloud details: Few Clouds 4600 ft
Few Clouds 9000 ft
2020/08/07 13:52 KTAN 071352Z AUTO 01003KT 10SM FEW046 FEW090 23/17 A3018 RMK AO2 RAB00E19 SLP218 P0000 T02280167
 
KPVD - Providence/Green, Rhode Island, USA
Distance from station: S 48mi, 77km
Updated: Fri, 07-Aug-2020 9:51am EDT
Overcast
Overcast
 Wind from NNE
Wind: NNE 6 mph , 9 km/h
Temperature: 75°F , 24°C
Dew Point: 61°F , 16°C
Humidity: 61%
Barometer: 30.19 inHg , 1022.4 hPa
Clouds: Overcast
Visibility: 10 miles , 16 km
Cloud details: Mostly cloudy 7000 ft
Mostly cloudy 15000 ft
Overcast 25000 ft
2020/08/07 13:51 KPVD 071351Z 02005KT 10SM BKN070 BKN150 OVC250 24/16 A3019 RMK AO2 RAB1255E15 SLP222 P0000 T02390156
KGHG - Marshfield, Massachusetts, USA
Distance from station: ESE 49mi, 79km
Updated: Fri, 07-Aug-2020 10:15am EDT
Clear
Clear
 
Temperature: 72°F , 22°C
Dew Point: 66°F , 19°C
Humidity: 83%
Barometer: 30.19 inHg , 1022.4 hPa
Clouds: Clear
Visibility: 10 miles , 16 km
2020/08/07 14:15 KGHG 071415Z AUTO 10SM CLR 22/19 A3019 RMK AO2
 
KEEN - Keene/Dillant, New Hampshire, USA
Distance from station: NW 50mi, 81km
Updated: Fri, 07-Aug-2020 9:56am EDT
Mostly cloudy
Mostly cloudy
 Wind from calm
Wind: Calm
Temperature: 64°F , 18°C
Dew Point: 57°F , 14°C
Humidity: 78%
Barometer: 30.22 inHg , 1023.4 hPa
Clouds: Mostly cloudy
Visibility: 10 miles , 16 km
Cloud details: Few Clouds 4500 ft
Mostly cloudy 8500 ft
Mostly cloudy 11000 ft
2020/08/07 13:56 KEEN 071356Z AUTO 00000KT 10SM FEW045 BKN085 BKN110 18/14 A3022 RMK AO2 RAB11E34 SLP239 P0000 T01780144 $